sensor_id;sensor_type;location;lat;lon;timestamp;temperature;humidity
40964;DHT22;26693;51.168;4.138;2022-09-27T00:00:11;10.70;99.90
40964;DHT22;26693;51.168;4.138;2022-09-27T00:01:14;10.70;99.90
40964;DHT22;26693;51.168;4.138;2022-09-27T00:02:15;10.80;99.90
40964;DHT22;26693;51.168;4.138;2022-09-27T00:03:15;10.80;99.90
40964;DHT22;26693;51.168;4.138;2022-09-27T00:04:16;10.80;99.90
40964;DHT22;26693;51.168;4.138;2022-09-27T00:05:17;10.80;99.90
40964;DHT22;26693;51.168;4.138;2022-09-27T00:06:24;10.80;99.90
40964;DHT22;26693;51.168;4.138;2022-09-27T00:07:25;10.80;99.90
40964;DHT22;26693;51.168;4.138;2022-09-27T00:08:25;10.90;99.90
40964;DHT22;26693;51.168;4.138;2022-09-27T00:09:26;10.90;99.90
40964;DHT22;26693;51.168;4.138;2022-09-27T00:10:27;11.00;99.90
40964;DHT22;26693;51.168;4.138;2022-09-27T00:11:37;11.00;99.90
40964;DHT22;26693;51.168;4.138;2022-09-27T00:12:38;11.00;99.90
40964;DHT22;26693;51.168;4.138;2022-09-27T00:13:39;11.00;99.90
40964;DHT22;26693;51.168;4.138;2022-09-27T00:14:40;11.10;99.90
40964;DHT22;26693;51.168;4.138;2022-09-27T00:15:40;11.10;99.90
40964;DHT22;26693;51.168;4.138;2022-09-27T00:16:42;11.10;99.90
40964;DHT22;26693;51.168;4.138;2022-09-27T00:17:43;11.10;99.90
40964;DHT22;26693;51.168;4.138;2022-09-27T00:18:43;11.10;99.90
40964;DHT22;26693;51.168;4.138;2022-09-27T00:19:44;11.10;99.90
40964;DHT22;26693;51.168;4.138;2022-09-27T00:20:44;11.20;99.90
40964;DHT22;26693;51.168;4.138;2022-09-27T00:21:46;11.20;99.90
40964;DHT22;26693;51.168;4.138;2022-09-27T00:22:47;11.20;99.90
40964;DHT22;26693;51.168;4.138;2022-09-27T00:23:48;11.20;99.90
40964;DHT22;26693;51.168;4.138;2022-09-27T00:24:49;11.10;99.90
40964;DHT22;26693;51.168;4.138;2022-09-27T00:25:57;11.10;99.90
40964;DHT22;26693;51.168;4.138;2022-09-27T00:26:58;11.10;99.90
40964;DHT22;26693;51.168;4.138;2022-09-27T00:27:59;11.20;99.90
40964;DHT22;26693;51.168;4.138;2022-09-27T00:28:59;11.10;99.90
40964;DHT22;26693;51.168;4.138;2022-09-27T00:30:00;11.10;99.90
40964;DHT22;26693;51.168;4.138;2022-09-27T00:31:01;11.10;99.90
40964;DHT22;26693;51.168;4.138;2022-09-27T00:32:02;11.20;99.90
40964;DHT22;26693;51.168;4.138;2022-09-27T00:33:03;11.20;99.90
40964;DHT22;26693;51.168;4.138;2022-09-27T00:34:04;11.20;99.90
40964;DHT22;26693;51.168;4.138;2022-09-27T00:35:05;11.20;99.90
40964;DHT22;26693;51.168;4.138;2022-09-27T00:36:06;11.20;99.90
40964;DHT22;26693;51.168;4.138;2022-09-27T00:37:08;11.20;99.90
40964;DHT22;26693;51.168;4.138;2022-09-27T00:38:09;11.20;99.90
40964;DHT22;26693;51.168;4.138;2022-09-27T00:39:10;11.20;99.90
40964;DHT22;26693;51.168;4.138;2022-09-27T00:40:10;11.20;99.90
40964;DHT22;26693;51.168;4.138;2022-09-27T00:41:16;11.10;99.90
40964;DHT22;26693;51.168;4.138;2022-09-27T00:42:17;11.20;99.90
40964;DHT22;26693;51.168;4.138;2022-09-27T00:43:20;11.20;99.90
40964;DHT22;26693;51.168;4.138;2022-09-27T00:45:25;11.30;99.90
40964;DHT22;26693;51.168;4.138;2022-09-27T00:46:30;11.20;99.90
40964;DHT22;26693;51.168;4.138;2022-09-27T00:47:40;11.20;99.90
40964;DHT22;26693;51.168;4.138;2022-09-27T00:48:42;11.20;99.90
40964;DHT22;26693;51.168;4.138;2022-09-27T00:49:46;11.40;99.90
40964;DHT22;26693;51.168;4.138;2022-09-27T00:50:49;11.30;99.90
40964;DHT22;26693;51.168;4.138;2022-09-27T00:51:56;11.30;99.90
40964;DHT22;26693;51.168;4.138;2022-09-27T00:53:13;11.20;99.90
40964;DHT22;26693;51.168;4.138;2022-09-27T00:54:16;11.20;99.90
40964;DHT22;26693;51.168;4.138;2022-09-27T00:55:22;11.10;99.90
40964;DHT22;26693;51.168;4.138;2022-09-27T00:56:27;11.10;99.90
40964;DHT22;26693;51.168;4.138;2022-09-27T00:57:28;11.20;99.90
40964;DHT22;26693;51.168;4.138;2022-09-27T00:58:32;11.20;99.90
40964;DHT22;26693;51.168;4.138;2022-09-27T00:59:52;11.20;99.90
40964;DHT22;26693;51.168;4.138;2022-09-27T01:00:58;11.20;99.90
40964;DHT22;26693;51.168;4.138;2022-09-27T01:02:03;11.30;99.90
40964;DHT22;26693;51.168;4.138;2022-09-27T01:03:06;11.20;99.90
40964;DHT22;26693;51.168;4.138;2022-09-27T01:04:11;11.20;99.90
40964;DHT22;26693;51.168;4.138;2022-09-27T01:05:14;11.30;99.90
40964;DHT22;26693;51.168;4.138;2022-09-27T01:06:18;11.20;99.90
40964;DHT22;26693;51.168;4.138;2022-09-27T01:07:20;11.20;99.90
40964;DHT22;26693;51.168;4.138;2022-09-27T01:08:20;11.30;99.90
40964;DHT22;26693;51.168;4.138;2022-09-27T01:09:22;11.30;99.90
40964;DHT22;26693;51.168;4.138;2022-09-27T01:10:24;11.40;99.90
40964;DHT22;26693;51.168;4.138;2022-09-27T01:11:45;11.30;99.90
40964;DHT22;26693;51.168;4.138;2022-09-27T01:13:19;11.40;99.90
40964;DHT22;26693;51.168;4.138;2022-09-27T01:17:34;11.20;99.90
40964;DHT22;26693;51.168;4.138;2022-09-27T01:27:20;10.70;99.90
40964;DHT22;26693;51.168;4.138;2022-09-27T01:28:50;10.80;99.90
40964;DHT22;26693;51.168;4.138;2022-09-27T01:30:15;10.70;99.90
40964;DHT22;26693;51.168;4.138;2022-09-27T01:31:40;10.70;99.90
40964;DHT22;26693;51.168;4.138;2022-09-27T01:33:09;10.70;99.90
40964;DHT22;26693;51.168;4.138;2022-09-27T01:34:24;10.70;99.90
40964;DHT22;26693;51.168;4.138;2022-09-27T01:38:32;10.80;99.90
40964;DHT22;26693;51.168;4.138;2022-09-27T01:39:50;10.80;99.90
40964;DHT22;26693;51.168;4.138;2022-09-27T01:42:36;10.80;99.90
40964;DHT22;26693;51.168;4.138;2022-09-27T01:43:52;10.90;99.90
40964;DHT22;26693;51.168;4.138;2022-09-27T01:46:09;10.80;99.90
40964;DHT22;26693;51.168;4.138;2022-09-27T01:47:19;10.80;99.90
40964;DHT22;26693;51.168;4.138;2022-09-27T01:48:22;10.70;99.90
40964;DHT22;26693;51.168;4.138;2022-09-27T01:49:42;10.60;99.90
40964;DHT22;26693;51.168;4.138;2022-09-27T01:51:08;10.60;99.90
40964;DHT22;26693;51.168;4.138;2022-09-27T01:52:15;10.70;99.90
40964;DHT22;26693;51.168;4.138;2022-09-27T01:53:56;10.60;99.90
40964;DHT22;26693;51.168;4.138;2022-09-27T01:54:56;10.60;99.90
40964;DHT22;26693;51.168;4.138;2022-09-27T01:55:59;10.50;99.90
40964;DHT22;26693;51.168;4.138;2022-09-27T01:57:03;10.40;99.90
40964;DHT22;26693;51.168;4.138;2022-09-27T01:58:11;10.30;99.90
40964;DHT22;26693;51.168;4.138;2022-09-27T01:59:17;10.40;99.90
40964;DHT22;26693;51.168;4.138;2022-09-27T02:00:18;10.30;99.90
40964;DHT22;26693;51.168;4.138;2022-09-27T02:01:21;10.40;99.90
40964;DHT22;26693;51.168;4.138;2022-09-27T02:02:25;10.30;99.90
40964;DHT22;26693;51.168;4.138;2022-09-27T02:03:31;10.40;99.90
40964;DHT22;26693;51.168;4.138;2022-09-27T02:04:35;10.50;99.90
40964;DHT22;26693;51.168;4.138;2022-09-27T02:05:43;10.50;99.90
40964;DHT22;26693;51.168;4.138;2022-09-27T02:06:47;10.50;99.90
40964;DHT22;26693;51.168;4.138;2022-09-27T02:07:56;10.50;99.90
40964;DHT22;26693;51.168;4.138;2022-09-27T02:09:03;10.70;99.90
40964;DHT22;26693;51.168;4.138;2022-09-27T02:10:16;10.70;99.90
40964;DHT22;26693;51.168;4.138;2022-09-27T02:11:18;10.60;99.90
40964;DHT22;26693;51.168;4.138;2022-09-27T02:12:27;10.50;99.90
40964;DHT22;26693;51.168;4.138;2022-09-27T02:13:37;10.60;99.90
40964;DHT22;26693;51.168;4.138;2022-09-27T02:14:57;10.70;99.90
40964;DHT22;26693;51.168;4.138;2022-09-27T02:18:33;10.90;99.90
40964;DHT22;26693;51.168;4.138;2022-09-27T02:20:10;10.90;99.90
40964;DHT22;26693;51.168;4.138;2022-09-27T02:21:13;11.10;99.90
40964;DHT22;26693;51.168;4.138;2022-09-27T02:22:23;11.20;99.90
40964;DHT22;26693;51.168;4.138;2022-09-27T02:24:43;11.30;99.90
40964;DHT22;26693;51.168;4.138;2022-09-27T02:26:06;11.20;99.90
40964;DHT22;26693;51.168;4.138;2022-09-27T02:27:14;11.20;99.90
40964;DHT22;26693;51.168;4.138;2022-09-27T02:28:34;11.00;99.90
40964;DHT22;26693;51.168;4.138;2022-09-27T02:29:45;10.90;99.90
40964;DHT22;26693;51.168;4.138;2022-09-27T02:30:50;10.80;99.90
40964;DHT22;26693;51.168;4.138;2022-09-27T02:31:51;10.80;99.90
40964;DHT22;26693;51.168;4.138;2022-09-27T02:32:51;10.90;99.90
40964;DHT22;26693;51.168;4.138;2022-09-27T02:34:00;10.90;99.90
40964;DHT22;26693;51.168;4.138;2022-09-27T02:35:06;10.80;99.90
40964;DHT22;26693;51.168;4.138;2022-09-27T02:36:08;10.70;99.90
40964;DHT22;26693;51.168;4.138;2022-09-27T02:37:09;10.60;99.90
40964;DHT22;26693;51.168;4.138;2022-09-27T02:38:09;10.50;99.90
40964;DHT22;26693;51.168;4.138;2022-09-27T02:39:10;10.50;99.90
40964;DHT22;26693;51.168;4.138;2022-09-27T02:40:11;10.60;99.90
40964;DHT22;26693;51.168;4.138;2022-09-27T02:41:18;10.60;99.90
40964;DHT22;26693;51.168;4.138;2022-09-27T02:42:19;10.70;99.90
40964;DHT22;26693;51.168;4.138;2022-09-27T02:43:20;10.60;99.90
40964;DHT22;26693;51.168;4.138;2022-09-27T02:44:23;10.60;99.90
40964;DHT22;26693;51.168;4.138;2022-09-27T02:45:31;10.60;99.90
40964;DHT22;26693;51.168;4.138;2022-09-27T02:48:38;10.60;99.90
40964;DHT22;26693;51.168;4.138;2022-09-27T02:51:06;10.60;99.90
40964;DHT22;26693;51.168;4.138;2022-09-27T02:54:44;10.60;99.90
40964;DHT22;26693;51.168;4.138;2022-09-27T03:02:12;10.70;99.90
40964;DHT22;26693;51.168;4.138;2022-09-27T03:03:20;10.60;99.90
40964;DHT22;26693;51.168;4.138;2022-09-27T03:04:49;10.70;99.90
40964;DHT22;26693;51.168;4.138;2022-09-27T03:06:10;10.70;99.90
40964;DHT22;26693;51.168;4.138;2022-09-27T03:07:12;10.90;99.90
40964;DHT22;26693;51.168;4.138;2022-09-27T03:08:14;10.90;99.90
40964;DHT22;26693;51.168;4.138;2022-09-27T03:09:22;11.00;99.90
40964;DHT22;26693;51.168;4.138;2022-09-27T03:10:26;10.90;99.90
40964;DHT22;26693;51.168;4.138;2022-09-27T03:11:27;10.90;99.90
40964;DHT22;26693;51.168;4.138;2022-09-27T03:12:27;10.90;99.90
40964;DHT22;26693;51.168;4.138;2022-09-27T03:13:28;10.90;99.90
40964;DHT22;26693;51.168;4.138;2022-09-27T03:14:29;10.90;99.90
40964;DHT22;26693;51.168;4.138;2022-09-27T03:15:30;10.90;99.90
40964;DHT22;26693;51.168;4.138;2022-09-27T03:16:31;11.00;99.90
40964;DHT22;26693;51.168;4.138;2022-09-27T03:17:31;11.00;99.90
40964;DHT22;26693;51.168;4.138;2022-09-27T03:18:32;11.00;99.90
40964;DHT22;26693;51.168;4.138;2022-09-27T03:19:33;10.90;99.90
40964;DHT22;26693;51.168;4.138;2022-09-27T03:20:33;10.70;99.90
40964;DHT22;26693;51.168;4.138;2022-09-27T03:21:34;10.80;99.90
40964;DHT22;26693;51.168;4.138;2022-09-27T03:22:35;10.70;99.90
40964;DHT22;26693;51.168;4.138;2022-09-27T03:23:37;10.50;99.90
40964;DHT22;26693;51.168;4.138;2022-09-27T03:24:37;10.60;99.90
40964;DHT22;26693;51.168;4.138;2022-09-27T03:25:39;10.80;99.90
40964;DHT22;26693;51.168;4.138;2022-09-27T03:26:39;10.80;99.90
40964;DHT22;26693;51.168;4.138;2022-09-27T03:27:40;10.70;99.90
40964;DHT22;26693;51.168;4.138;2022-09-27T03:28:40;10.70;99.90
40964;DHT22;26693;51.168;4.138;2022-09-27T03:29:41;10.80;99.90
40964;DHT22;26693;51.168;4.138;2022-09-27T03:30:44;10.80;99.90
40964;DHT22;26693;51.168;4.138;2022-09-27T03:31:45;10.80;99.90
40964;DHT22;26693;51.168;4.138;2022-09-27T03:32:45;10.90;99.90
40964;DHT22;26693;51.168;4.138;2022-09-27T03:33:46;10.90;99.90
40964;DHT22;26693;51.168;4.138;2022-09-27T03:34:47;10.90;99.90
40964;DHT22;26693;51.168;4.138;2022-09-27T03:35:48;10.80;99.90
40964;DHT22;26693;51.168;4.138;2022-09-27T03:36:49;10.70;99.90
40964;DHT22;26693;51.168;4.138;2022-09-27T03:37:49;10.70;99.90
40964;DHT22;26693;51.168;4.138;2022-09-27T03:38:50;10.70;99.90
40964;DHT22;26693;51.168;4.138;2022-09-27T03:39:50;10.70;99.90
40964;DHT22;26693;51.168;4.138;2022-09-27T03:40:51;10.70;99.90
40964;DHT22;26693;51.168;4.138;2022-09-27T03:41:52;10.70;99.90
40964;DHT22;26693;51.168;4.138;2022-09-27T03:42:52;10.80;99.90
40964;DHT22;26693;51.168;4.138;2022-09-27T03:43:54;10.70;99.90
40964;DHT22;26693;51.168;4.138;2022-09-27T03:44:57;10.50;99.90
40964;DHT22;26693;51.168;4.138;2022-09-27T03:45:57;10.60;99.90
40964;DHT22;26693;51.168;4.138;2022-09-27T03:46:58;10.60;99.90
40964;DHT22;26693;51.168;4.138;2022-09-27T03:47:59;10.60;99.90
40964;DHT22;26693;51.168;4.138;2022-09-27T03:49:00;10.70;99.90
40964;DHT22;26693;51.168;4.138;2022-09-27T03:50:00;10.80;99.90
40964;DHT22;26693;51.168;4.138;2022-09-27T03:51:01;11.10;99.90
40964;DHT22;26693;51.168;4.138;2022-09-27T03:52:01;11.10;99.90
40964;DHT22;26693;51.168;4.138;2022-09-27T03:53:02;11.10;99.90
40964;DHT22;26693;51.168;4.138;2022-09-27T03:54:03;11.00;99.90
40964;DHT22;26693;51.168;4.138;2022-09-27T03:55:04;11.10;99.90
40964;DHT22;26693;51.168;4.138;2022-09-27T03:56:04;11.10;99.90
40964;DHT22;26693;51.168;4.138;2022-09-27T03:57:05;11.10;99.90
40964;DHT22;26693;51.168;4.138;2022-09-27T03:58:05;11.20;99.90
40964;DHT22;26693;51.168;4.138;2022-09-27T03:59:06;10.90;99.90
40964;DHT22;26693;51.168;4.138;2022-09-27T04:00:07;10.80;99.90
40964;DHT22;26693;51.168;4.138;2022-09-27T04:01:08;10.90;99.90
40964;DHT22;26693;51.168;4.138;2022-09-27T04:02:09;11.00;99.90
40964;DHT22;26693;51.168;4.138;2022-09-27T04:03:09;11.00;99.90
40964;DHT22;26693;51.168;4.138;2022-09-27T04:04:11;11.00;99.90
40964;DHT22;26693;51.168;4.138;2022-09-27T04:05:12;11.10;99.90
40964;DHT22;26693;51.168;4.138;2022-09-27T04:06:12;11.10;99.90
40964;DHT22;26693;51.168;4.138;2022-09-27T04:07:14;11.10;99.90
40964;DHT22;26693;51.168;4.138;2022-09-27T04:08:16;11.20;99.90
40964;DHT22;26693;51.168;4.138;2022-09-27T04:09:17;11.20;99.90
40964;DHT22;26693;51.168;4.138;2022-09-27T04:10:18;11.20;99.90
40964;DHT22;26693;51.168;4.138;2022-09-27T04:11:18;11.30;99.90
40964;DHT22;26693;51.168;4.138;2022-09-27T04:12:19;11.30;99.90
40964;DHT22;26693;51.168;4.138;2022-09-27T04:13:20;11.30;99.90
40964;DHT22;26693;51.168;4.138;2022-09-27T04:14:20;11.30;99.90
40964;DHT22;26693;51.168;4.138;2022-09-27T04:15:21;11.30;99.90
40964;DHT22;26693;51.168;4.138;2022-09-27T04:16:21;11.10;99.90
40964;DHT22;26693;51.168;4.138;2022-09-27T04:17:22;11.20;99.90
40964;DHT22;26693;51.168;4.138;2022-09-27T04:18:24;11.10;99.90
40964;DHT22;26693;51.168;4.138;2022-09-27T04:19:25;11.00;99.90
40964;DHT22;26693;51.168;4.138;2022-09-27T04:20:26;11.10;99.90
40964;DHT22;26693;51.168;4.138;2022-09-27T04:21:27;11.00;99.90
40964;DHT22;26693;51.168;4.138;2022-09-27T04:22:27;10.90;99.90
40964;DHT22;26693;51.168;4.138;2022-09-27T04:23:28;10.80;99.90
40964;DHT22;26693;51.168;4.138;2022-09-27T04:24:28;10.70;99.90
40964;DHT22;26693;51.168;4.138;2022-09-27T04:25:31;10.60;99.90
40964;DHT22;26693;51.168;4.138;2022-09-27T04:26:34;10.60;99.90
40964;DHT22;26693;51.168;4.138;2022-09-27T04:27:36;10.60;99.90
40964;DHT22;26693;51.168;4.138;2022-09-27T04:28:37;10.80;99.90
40964;DHT22;26693;51.168;4.138;2022-09-27T04:29:37;10.70;99.90
40964;DHT22;26693;51.168;4.138;2022-09-27T04:30:42;10.80;99.90
40964;DHT22;26693;51.168;4.138;2022-09-27T04:31:42;10.80;99.90
40964;DHT22;26693;51.168;4.138;2022-09-27T04:32:44;10.90;99.90
40964;DHT22;26693;51.168;4.138;2022-09-27T04:33:44;11.00;99.90
40964;DHT22;26693;51.168;4.138;2022-09-27T04:34:45;11.00;99.90
40964;DHT22;26693;51.168;4.138;2022-09-27T04:36:04;11.00;99.90
40964;DHT22;26693;51.168;4.138;2022-09-27T04:37:24;11.00;99.90
40964;DHT22;26693;51.168;4.138;2022-09-27T04:38:26;10.90;99.90
40964;DHT22;26693;51.168;4.138;2022-09-27T04:39:26;10.90;99.90
40964;DHT22;26693;51.168;4.138;2022-09-27T04:40:27;10.90;99.90
40964;DHT22;26693;51.168;4.138;2022-09-27T04:41:29;10.90;99.90
40964;DHT22;26693;51.168;4.138;2022-09-27T04:42:29;10.80;99.90
40964;DHT22;26693;51.168;4.138;2022-09-27T04:43:30;10.70;99.90
40964;DHT22;26693;51.168;4.138;2022-09-27T04:44:31;10.60;99.90
40964;DHT22;26693;51.168;4.138;2022-09-27T04:45:32;10.60;99.90
40964;DHT22;26693;51.168;4.138;2022-09-27T04:46:32;10.70;99.90
40964;DHT22;26693;51.168;4.138;2022-09-27T04:47:33;10.70;99.90
40964;DHT22;26693;51.168;4.138;2022-09-27T04:48:34;10.80;99.90
40964;DHT22;26693;51.168;4.138;2022-09-27T04:49:35;10.60;99.90
40964;DHT22;26693;51.168;4.138;2022-09-27T04:50:35;10.60;99.90
40964;DHT22;26693;51.168;4.138;2022-09-27T04:51:37;10.60;99.90
40964;DHT22;26693;51.168;4.138;2022-09-27T04:52:37;10.70;99.90
40964;DHT22;26693;51.168;4.138;2022-09-27T04:53:38;10.50;99.90
40964;DHT22;26693;51.168;4.138;2022-09-27T04:54:39;10.60;99.90
40964;DHT22;26693;51.168;4.138;2022-09-27T04:55:44;10.70;99.90
40964;DHT22;26693;51.168;4.138;2022-09-27T04:56:45;10.70;99.90
40964;DHT22;26693;51.168;4.138;2022-09-27T04:57:48;10.70;99.90
40964;DHT22;26693;51.168;4.138;2022-09-27T04:58:49;10.60;99.90
40964;DHT22;26693;51.168;4.138;2022-09-27T04:59:49;10.60;99.90
40964;DHT22;26693;51.168;4.138;2022-09-27T05:00:50;10.70;99.90
40964;DHT22;26693;51.168;4.138;2022-09-27T05:01:55;10.80;99.90
40964;DHT22;26693;51.168;4.138;2022-09-27T05:02:58;10.80;99.90
40964;DHT22;26693;51.168;4.138;2022-09-27T05:03:59;10.80;99.90
40964;DHT22;26693;51.168;4.138;2022-09-27T05:05:00;10.90;99.90
40964;DHT22;26693;51.168;4.138;2022-09-27T05:06:00;10.90;99.90
40964;DHT22;26693;51.168;4.138;2022-09-27T05:07:02;11.00;99.90
40964;DHT22;26693;51.168;4.138;2022-09-27T05:08:03;11.00;99.90
40964;DHT22;26693;51.168;4.138;2022-09-27T05:09:04;11.20;99.90
40964;DHT22;26693;51.168;4.138;2022-09-27T05:10:05;11.20;99.90
40964;DHT22;26693;51.168;4.138;2022-09-27T05:11:06;11.20;99.90
40964;DHT22;26693;51.168;4.138;2022-09-27T05:12:07;11.20;99.90
40964;DHT22;26693;51.168;4.138;2022-09-27T05:13:08;11.30;99.90
40964;DHT22;26693;51.168;4.138;2022-09-27T05:14:08;11.30;99.90
40964;DHT22;26693;51.168;4.138;2022-09-27T05:15:09;11.40;99.90
40964;DHT22;26693;51.168;4.138;2022-09-27T05:16:10;11.50;99.90
40964;DHT22;26693;51.168;4.138;2022-09-27T05:17:10;11.40;99.90
40964;DHT22;26693;51.168;4.138;2022-09-27T05:18:12;11.40;99.90
40964;DHT22;26693;51.168;4.138;2022-09-27T05:19:12;11.30;99.90
40964;DHT22;26693;51.168;4.138;2022-09-27T05:20:13;11.20;99.90
40964;DHT22;26693;51.168;4.138;2022-09-27T05:21:13;11.20;99.90
40964;DHT22;26693;51.168;4.138;2022-09-27T05:22:14;11.30;99.90
40964;DHT22;26693;51.168;4.138;2022-09-27T05:23:15;11.00;99.90
40964;DHT22;26693;51.168;4.138;2022-09-27T05:24:15;10.70;99.90
40964;DHT22;26693;51.168;4.138;2022-09-27T05:25:16;10.50;99.90
40964;DHT22;26693;51.168;4.138;2022-09-27T05:26:17;10.50;99.90
40964;DHT22;26693;51.168;4.138;2022-09-27T05:27:18;10.50;99.90
40964;DHT22;26693;51.168;4.138;2022-09-27T05:28:19;10.50;99.90
40964;DHT22;26693;51.168;4.138;2022-09-27T05:29:20;10.60;99.90
40964;DHT22;26693;51.168;4.138;2022-09-27T05:30:20;10.70;99.90
40964;DHT22;26693;51.168;4.138;2022-09-27T05:31:21;10.70;99.90
40964;DHT22;26693;51.168;4.138;2022-09-27T05:32:21;10.70;99.90
40964;DHT22;26693;51.168;4.138;2022-09-27T05:33:22;10.70;99.90
40964;DHT22;26693;51.168;4.138;2022-09-27T05:34:23;10.80;99.90
40964;DHT22;26693;51.168;4.138;2022-09-27T05:35:24;10.90;99.90
40964;DHT22;26693;51.168;4.138;2022-09-27T05:36:24;10.90;99.90
40964;DHT22;26693;51.168;4.138;2022-09-27T05:37:25;11.00;99.90
40964;DHT22;26693;51.168;4.138;2022-09-27T05:38:26;11.00;99.90
40964;DHT22;26693;51.168;4.138;2022-09-27T05:39:27;11.10;99.90
40964;DHT22;26693;51.168;4.138;2022-09-27T05:40:28;11.20;99.90
40964;DHT22;26693;51.168;4.138;2022-09-27T05:41:29;11.20;99.90
40964;DHT22;26693;51.168;4.138;2022-09-27T05:42:32;11.20;99.90
40964;DHT22;26693;51.168;4.138;2022-09-27T05:43:35;11.20;99.90
40964;DHT22;26693;51.168;4.138;2022-09-27T05:44:35;11.20;99.90
40964;DHT22;26693;51.168;4.138;2022-09-27T05:45:36;11.20;99.90
40964;DHT22;26693;51.168;4.138;2022-09-27T05:46:37;11.30;99.90
40964;DHT22;26693;51.168;4.138;2022-09-27T05:47:38;11.10;99.90
40964;DHT22;26693;51.168;4.138;2022-09-27T05:48:38;11.10;99.90
40964;DHT22;26693;51.168;4.138;2022-09-27T05:49:39;11.20;99.90
40964;DHT22;26693;51.168;4.138;2022-09-27T05:50:40;11.10;99.90
40964;DHT22;26693;51.168;4.138;2022-09-27T05:51:40;11.10;99.90
40964;DHT22;26693;51.168;4.138;2022-09-27T05:52:42;11.00;99.90
40964;DHT22;26693;51.168;4.138;2022-09-27T05:53:43;11.10;99.90
40964;DHT22;26693;51.168;4.138;2022-09-27T05:54:44;10.90;99.90
40964;DHT22;26693;51.168;4.138;2022-09-27T05:55:44;10.80;99.90
40964;DHT22;26693;51.168;4.138;2022-09-27T05:56:45;10.90;99.90
40964;DHT22;26693;51.168;4.138;2022-09-27T05:57:59;10.70;99.90
40964;DHT22;26693;51.168;4.138;2022-09-27T05:58:59;10.70;99.90
40964;DHT22;26693;51.168;4.138;2022-09-27T06:00:00;10.70;99.90
40964;DHT22;26693;51.168;4.138;2022-09-27T06:01:01;10.60;99.90
40964;DHT22;26693;51.168;4.138;2022-09-27T06:02:01;10.50;99.90
40964;DHT22;26693;51.168;4.138;2022-09-27T06:03:04;10.60;99.90
40964;DHT22;26693;51.168;4.138;2022-09-27T06:04:05;10.60;99.90
40964;DHT22;26693;51.168;4.138;2022-09-27T06:05:06;10.70;99.90
40964;DHT22;26693;51.168;4.138;2022-09-27T06:06:07;10.70;99.90
40964;DHT22;26693;51.168;4.138;2022-09-27T06:07:09;10.70;99.90
40964;DHT22;26693;51.168;4.138;2022-09-27T06:08:12;10.70;99.90
40964;DHT22;26693;51.168;4.138;2022-09-27T06:09:14;10.60;99.90
40964;DHT22;26693;51.168;4.138;2022-09-27T06:10:16;10.70;99.90
40964;DHT22;26693;51.168;4.138;2022-09-27T06:11:17;10.80;99.90
40964;DHT22;26693;51.168;4.138;2022-09-27T06:12:17;10.80;99.90
40964;DHT22;26693;51.168;4.138;2022-09-27T06:13:18;10.90;99.90
40964;DHT22;26693;51.168;4.138;2022-09-27T06:14:18;10.90;99.90
40964;DHT22;26693;51.168;4.138;2022-09-27T06:15:19;10.90;99.90
40964;DHT22;26693;51.168;4.138;2022-09-27T06:16:19;10.90;99.90
40964;DHT22;26693;51.168;4.138;2022-09-27T06:17:23;10.90;99.90
40964;DHT22;26693;51.168;4.138;2022-09-27T06:18:24;11.00;99.90
40964;DHT22;26693;51.168;4.138;2022-09-27T06:19:24;11.10;99.90
40964;DHT22;26693;51.168;4.138;2022-09-27T06:20:25;11.20;99.90
40964;DHT22;26693;51.168;4.138;2022-09-27T06:21:26;11.20;99.90
40964;DHT22;26693;51.168;4.138;2022-09-27T06:22:28;11.20;99.90
40964;DHT22;26693;51.168;4.138;2022-09-27T06:23:29;11.20;99.90
40964;DHT22;26693;51.168;4.138;2022-09-27T06:24:32;11.20;99.90
40964;DHT22;26693;51.168;4.138;2022-09-27T06:25:33;11.30;99.90
40964;DHT22;26693;51.168;4.138;2022-09-27T06:26:34;11.30;99.90
40964;DHT22;26693;51.168;4.138;2022-09-27T06:27:35;11.20;99.90
40964;DHT22;26693;51.168;4.138;2022-09-27T06:28:36;11.10;99.90
40964;DHT22;26693;51.168;4.138;2022-09-27T06:29:36;11.00;99.90
40964;DHT22;26693;51.168;4.138;2022-09-27T06:30:39;10.90;99.90
40964;DHT22;26693;51.168;4.138;2022-09-27T06:31:40;11.00;99.90
40964;DHT22;26693;51.168;4.138;2022-09-27T06:32:41;10.90;99.90
40964;DHT22;26693;51.168;4.138;2022-09-27T06:33:41;10.90;99.90
40964;DHT22;26693;51.168;4.138;2022-09-27T06:34:42;11.00;99.90
40964;DHT22;26693;51.168;4.138;2022-09-27T06:35:43;11.00;99.90
40964;DHT22;26693;51.168;4.138;2022-09-27T06:36:44;11.00;99.90
40964;DHT22;26693;51.168;4.138;2022-09-27T06:37:48;10.90;99.90
40964;DHT22;26693;51.168;4.138;2022-09-27T06:38:49;11.00;99.90
40964;DHT22;26693;51.168;4.138;2022-09-27T06:39:49;10.90;99.90
40964;DHT22;26693;51.168;4.138;2022-09-27T06:40:51;10.90;99.90
40964;DHT22;26693;51.168;4.138;2022-09-27T06:41:53;10.80;99.90
40964;DHT22;26693;51.168;4.138;2022-09-27T06:43:04;10.80;99.90
40964;DHT22;26693;51.168;4.138;2022-09-27T06:44:05;10.80;99.90
40964;DHT22;26693;51.168;4.138;2022-09-27T06:45:06;10.80;99.90
40964;DHT22;26693;51.168;4.138;2022-09-27T06:46:07;10.80;99.90
40964;DHT22;26693;51.168;4.138;2022-09-27T06:47:07;10.80;99.90
40964;DHT22;26693;51.168;4.138;2022-09-27T06:48:09;10.80;99.90
40964;DHT22;26693;51.168;4.138;2022-09-27T06:49:11;10.80;99.90
40964;DHT22;26693;51.168;4.138;2022-09-27T06:50:12;10.90;99.90
40964;DHT22;26693;51.168;4.138;2022-09-27T06:51:13;10.90;99.90
40964;DHT22;26693;51.168;4.138;2022-09-27T06:52:14;11.10;99.90
40964;DHT22;26693;51.168;4.138;2022-09-27T06:53:15;11.10;99.90
40964;DHT22;26693;51.168;4.138;2022-09-27T06:54:16;11.10;99.90
40964;DHT22;26693;51.168;4.138;2022-09-27T06:55:17;11.10;99.90
40964;DHT22;26693;51.168;4.138;2022-09-27T06:56:17;11.10;99.90
40964;DHT22;26693;51.168;4.138;2022-09-27T06:57:18;11.10;99.90
40964;DHT22;26693;51.168;4.138;2022-09-27T06:58:38;10.90;99.90
40964;DHT22;26693;51.168;4.138;2022-09-27T06:59:57;11.00;99.90
40964;DHT22;26693;51.168;4.138;2022-09-27T07:01:17;10.80;99.90
40964;DHT22;26693;51.168;4.138;2022-09-27T07:02:17;10.80;99.90
40964;DHT22;26693;51.168;4.138;2022-09-27T07:03:22;10.70;99.90
40964;DHT22;26693;51.168;4.138;2022-09-27T07:04:23;10.70;99.90
40964;DHT22;26693;51.168;4.138;2022-09-27T07:05:24;10.60;99.90
40964;DHT22;26693;51.168;4.138;2022-09-27T07:06:25;10.50;99.90
40964;DHT22;26693;51.168;4.138;2022-09-27T07:07:27;10.50;99.90
40964;DHT22;26693;51.168;4.138;2022-09-27T07:08:28;10.50;99.90
40964;DHT22;26693;51.168;4.138;2022-09-27T07:09:29;10.60;99.90
40964;DHT22;26693;51.168;4.138;2022-09-27T07:10:32;10.60;99.90
40964;DHT22;26693;51.168;4.138;2022-09-27T07:11:34;10.60;99.90
40964;DHT22;26693;51.168;4.138;2022-09-27T07:12:36;10.70;99.90
40964;DHT22;26693;51.168;4.138;2022-09-27T07:13:37;10.70;99.90
40964;DHT22;26693;51.168;4.138;2022-09-27T07:14:42;10.70;99.90